Flight Track Log - Related Links

Times and Time Zones

All times are in EDT time to prevent confusion due to time zone crossing. See the EJM92 flight status page for this flight to view local times or setup timezone preferences in your user account.

Time Position Orientation Groundspeed Altitude Reporting Facility
EDT Latitude Longitude Course Direction KTS MPH feet Rate Location/Type
Tue 03:33:54 PM 41.5011 -74.1356 324° Northwest 178 205 2,100  Level Boston Center
Tue 03:34:54 PM 41.5481 -74.1811 324° Northwest 253 291 4,900 1,790 Climbing Boston Center
Tue 03:35:58 PM 41.5867 -74.0931 60° Northeast 278 320 5,800 2,032 Climbing Boston Center
Tue 03:36:58 PM 41.6186 -73.9864 68° East 305 351 9,100 2,083 Climbing Boston Center
Tue 03:37:59 PM 41.6542 -73.8647 69° East 357 411 10,000 1,171 Climbing Boston Center
Tue 03:39:01 PM 41.6683 -73.7164 60° Northeast 376 433 11,500 1,463 Climbing Boston Center
Tue 03:40:02 PM 41.6650 -73.5731 92° East 386 444 13,000 726 Climbing Boston Center
Tue 03:41:05 PM 41.6628 -73.4297 91° East 385 443 13,000  Level Boston Center
Tue 03:42:06 PM 41.6603 -73.2756 91° East 397 457 13,000  Level Boston Center
Tue 03:43:06 PM 41.6564 -73.1314 92° East 389 448 13,000  Level Boston Center
Tue 03:44:09 PM 41.6578 -72.9861 89° East 391 450 13,000  Level Boston Center
Tue 03:45:10 PM 41.6633 -72.8292 87° East 394 453 13,000  Level Boston Center
Tue 03:46:11 PM 41.6683 -72.6842 87° East 393 452 13,000  Level Boston Center
Tue 03:47:11 PM 41.6742 -72.5283 87° East 390 449 13,000  Level Boston Center
Tue 03:48:15 PM 41.6789 -72.3867 87° East 383 441 13,000  Level Boston Center
Tue 03:49:15 PM 41.6836 -72.2408 87° East 393 452 13,000  Level Boston Center
Tue 03:50:13 PM 41.6881 -72.0972 88° East 390 449 13,000  Level Boston Center
Tue 03:50:16 PM 41.6889 -72.0853 85° East 392 451 13,000 -769 Level Boston Center
Tue 03:51:31 PM 41.6992 -71.9108 85° East 377 434 12,000 -1,268 Descending Boston Center
Tue 03:52:19 PM 41.7283 -71.8153 68° East 359 413 10,400 -2,060 Descending Boston Center
Tue 03:52:38 PM 41.7425 -71.7853 58° Northeast 311 358 9,700 -2,066 Descending Boston Center
Tue 03:53:20 PM 41.7775 -71.7222 53° Northeast 306 352 8,300 -2,300 Descending Boston Center
Tue 03:53:38 PM 41.7914 -71.6964 54° Northeast 284 327 7,400 -2,951 Descending Boston Center
Tue 03:54:21 PM 41.8256 -71.6333 54° Northeast 293 337 5,300 -2,467 Descending Boston Center
Tue 03:55:25 PM 41.8767 -71.5436 53° Northeast 279 321 3,000 -1,113 Descending Boston Center
Tue 03:56:25 PM 41.9225 -71.4672 51° Northeast 265 305 3,000  Level Boston Center
Tue 03:57:25 PM 41.9733 -71.3958 46° Northeast 265 305 3,000 -49 Level Boston Center
Tue 03:58:28 PM 42.0281 -71.3219 45° Northeast 259 298 2,900 -484 Descending Boston Center
Tue 03:59:29 PM 42.0811 -71.2564 43° Northeast 261 300 2,000 -541 Descending Boston Center
Tue 04:00:30 PM 42.1219 -71.1958 48° Northeast 215 247 1,800 -344 Descending Boston Center
Tue 04:01:31 PM 42.1375 -71.1486 66° East 142 163 1,300 -590 Descending Boston Center
Tue 04:02:32 PM 42.1664 -71.1639 339° North 119 137 600 -689 Descending Boston Center

Login

Don't have an account? Register now (free) for customized features, flight alerts, and more!